Time;durP1;ratioP1;P1;durP2;ratioP2;P2;SDS_P1;SDS_P2;PMS_P1;PMS_P2;Temp;Humidity;BMP_temperature;BMP_pressure;BME280_temperature;BME280_humidity;BME280_pressure;Samples;Min_cycle;Max_cycle;Signal;HPM_P1;HPM_P2
2022/07/08 00:01:47;;;;;;;8.07;7.32;;;;;;;19.81;66.45;94883.03;5118564;28;20184;-71
2022/07/08 00:04:14;;;;;;;8.05;7.40;;;;;;;19.81;66.60;94873.84;5117825;28;20206;-71
2022/07/08 00:06:41;;;;;;;6.88;6.00;;;;;;;19.77;66.32;94861.91;5117896;28;20611;-71
2022/07/08 00:09:10;;;;;;;6.50;5.93;;;;;;;19.68;66.38;94857.63;5118655;28;20191;-72
2022/07/08 00:11:37;;;;;;;6.32;5.82;;;;;;;19.64;66.36;94861.63;5119618;28;20203;-72
2022/07/08 00:14:04;;;;;;;6.53;5.93;;;;;;;19.63;66.58;94860.06;5120197;28;20183;-73
2022/07/08 00:16:33;;;;;;;6.40;5.90;;;;;;;19.53;66.02;94855.34;5120029;28;20554;-72
2022/07/08 00:19:01;;;;;;;6.03;5.53;;;;;;;19.50;66.65;94854.19;5119035;28;20203;-72
2022/07/08 00:21:28;;;;;;;6.35;5.75;;;;;;;19.58;66.40;94852.88;5118312;28;20207;-72
2022/07/08 00:23:55;;;;;;;6.32;5.72;;;;;;;19.65;66.08;94855.63;5118186;28;20196;-72
2022/07/08 00:26:22;;;;;;;6.18;5.68;;;;;;;19.61;66.36;94860.47;5118557;28;20191;-72
2022/07/08 00:28:49;;;;;;;5.68;5.25;;;;;;;19.54;66.71;94854.94;5117500;28;20200;-72
2022/07/08 00:31:16;;;;;;;6.20;5.68;;;;;;;19.55;67.04;94855.72;5118014;28;20200;-72
2022/07/08 00:33:42;;;;;;;6.40;5.90;;;;;;;19.59;66.37;94854.47;5117374;28;20211;-72
2022/07/08 00:36:11;;;;;;;6.15;5.55;;;;;;;19.64;66.40;94854.03;5117317;28;20211;-72
2022/07/08 00:38:38;;;;;;;6.75;6.15;;;;;;;19.61;66.50;94848.47;5117095;28;20188;-72
2022/07/08 00:41:05;;;;;;;6.40;5.88;;;;;;;19.57;66.82;94859.69;5117069;28;20200;-72
2022/07/08 00:43:35;;;;;;;5.97;5.28;;;;;;;19.54;66.62;94848.56;5116582;28;20619;-72
2022/07/08 00:46:02;;;;;;;6.03;5.45;;;;;;;19.53;66.83;94858.13;5117881;28;20212;-72
2022/07/08 00:48:30;;;;;;;5.80;5.18;;;;;;;19.54;66.91;94854.16;5117623;28;20192;-72
2022/07/08 00:50:59;;;;;;;6.13;5.53;;;;;;;19.53;66.80;94853.34;5117261;28;20207;-72
2022/07/08 00:53:28;;;;;;;6.03;5.53;;;;;;;19.50;66.86;94856.97;5117912;28;20245;-72
2022/07/08 00:55:55;;;;;;;6.18;5.68;;;;;;;19.49;67.02;94855.38;5117429;28;20219;-72
2022/07/08 00:58:22;;;;;;;5.78;5.28;;;;;;;19.46;67.39;94859.00;5117341;28;20203;-72
2022/07/08 01:00:50;;;;;;;5.45;4.95;;;;;;;19.51;67.09;94854.97;5118103;28;20592;-72
2022/07/08 01:03:16;;;;;;;6.75;6.03;;;;;;;19.55;66.97;94855.72;5118170;28;20522;-72
2022/07/08 01:05:43;;;;;;;6.95;5.53;;;;;;;19.50;67.11;94856.97;5117567;28;20202;-72
2022/07/08 01:08:10;;;;;;;6.15;5.65;;;;;;;19.45;66.82;94858.22;5117868;28;20512;-72
2022/07/08 01:10:40;;;;;;;6.72;5.75;;;;;;;19.39;67.14;94850.69;5117607;28;20192;-72
2022/07/08 01:13:07;;;;;;;6.50;5.90;;;;;;;19.33;66.76;94844.75;5118012;28;20192;-72
2022/07/08 01:15:34;;;;;;;5.50;4.97;;;;;;;19.31;66.82;94849.19;5118306;28;20215;-72
2022/07/08 01:18:01;;;;;;;6.25;5.75;;;;;;;19.32;67.09;94850.75;5116869;28;20184;-72
2022/07/08 01:20:27;;;;;;;6.70;6.10;;;;;;;19.28;66.87;94855.59;5117794;28;20503;-72
2022/07/08 01:22:55;;;;;;;6.00;5.50;;;;;;;19.21;66.86;94848.09;5117243;28;20214;-72
2022/07/08 01:25:22;;;;;;;6.00;5.47;;;;;;;19.17;67.17;94844.50;5117530;28;20200;-72
2022/07/08 01:27:49;;;;;;;6.43;5.82;;;;;;;19.13;66.79;94838.94;5116976;28;20199;-72
2022/07/08 01:30:16;;;;;;;6.63;5.90;;;;;;;19.11;67.11;94840.59;5117353;28;20180;-72
2022/07/08 01:32:44;;;;;;;6.38;5.72;;;;;;;19.10;66.76;94847.38;5116560;28;20195;-72
2022/07/08 01:35:11;;;;;;;6.82;6.15;;;;;;;19.11;66.94;94848.97;5116014;28;20322;-72
2022/07/08 01:37:38;;;;;;;6.70;6.00;;;;;;;19.09;67.04;94849.38;5115969;28;20200;-71
2022/07/08 01:40:08;;;;;;;7.13;6.43;;;;;;;19.10;67.23;94850.16;5116204;28;20540;-72
2022/07/08 01:42:35;;;;;;;6.97;6.20;;;;;;;19.12;67.39;94854.13;5117014;28;20180;-72
2022/07/08 01:45:01;;;;;;;7.20;6.60;;;;;;;19.10;67.23;94853.78;5116342;28;20199;-71
2022/07/08 01:47:28;;;;;;;7.05;6.28;;;;;;;19.09;67.01;94849.38;5116577;28;20199;-72
2022/07/08 01:49:55;;;;;;;6.60;6.07;;;;;;;19.11;66.72;94851.78;5115954;28;20200;-72
2022/07/08 01:52:22;;;;;;;6.72;6.13;;;;;;;19.15;67.05;94849.72;5116423;28;20235;-72
2022/07/08 01:54:50;;;;;;;6.90;6.30;;;;;;;19.19;66.94;94847.69;5115992;28;20195;-72
2022/07/08 01:57:21;;;;;;;7.55;5.97;;;;;;;19.14;66.55;94850.94;5116662;28;20200;-72
2022/07/08 01:59:49;;;;;;;6.70;6.03;;;;;;;19.10;67.30;94852.97;5116558;28;20315;-72
2022/07/08 02:02:17;;;;;;;6.47;5.93;;;;;;;19.06;67.46;94846.59;5116007;28;20187;-72
2022/07/08 02:04:44;;;;;;;7.53;6.13;;;;;;;19.03;67.85;94859.44;5116456;28;20184;-72
2022/07/08 02:07:12;;;;;;;6.95;5.95;;;;;;;19.04;67.71;94855.41;5116519;28;20176;-72
2022/07/08 02:09:39;;;;;;;7.47;6.72;;;;;;;19.02;67.48;94854.25;5115114;28;20199;-72
2022/07/08 02:12:18;;;;;;;8.05;6.65;;;;;;;19.00;68.08;94866.63;5115825;28;20202;-72
2022/07/08 02:14:47;;;;;;;7.43;6.75;;;;;;;19.00;67.18;94868.63;5115124;28;20206;-72
2022/07/08 02:17:14;;;;;;;7.82;7.03;;;;;;;18.94;67.27;94870.28;5115159;28;20230;-73
2022/07/08 02:19:41;;;;;;;7.32;6.72;;;;;;;18.90;67.47;94866.72;5115777;28;20211;-73
2022/07/08 02:22:09;;;;;;;7.00;6.40;;;;;;;18.85;67.85;94867.97;5115433;28;20227;-73
2022/07/08 02:24:36;;;;;;;7.32;6.57;;;;;;;18.86;67.59;94869.53;5115156;28;20210;-73
2022/07/08 02:27:03;;;;;;;7.40;6.70;;;;;;;18.86;67.55;94877.13;5114946;28;20192;-73
2022/07/08 02:29:29;;;;;;;7.68;6.97;;;;;;;18.86;66.85;94877.94;5116245;28;20195;-72
2022/07/08 02:31:58;;;;;;;6.28;5.68;;;;;;;18.88;66.62;94874.72;5114959;28;20202;-73
2022/07/08 02:34:25;;;;;;;5.72;5.32;;;;;;;18.87;66.44;94871.13;5115922;28;20183;-73
2022/07/08 02:36:52;;;;;;;5.70;5.20;;;;;;;18.86;66.83;94872.34;5115700;28;20235;-73
2022/07/08 02:39:18;;;;;;;5.57;5.18;;;;;;;18.87;66.86;94878.72;5116082;28;20188;-73
2022/07/08 02:41:45;;;;;;;5.53;5.03;;;;;;;18.88;66.64;94885.88;5114441;28;20604;-73
2022/07/08 02:44:12;;;;;;;5.43;5.00;;;;;;;18.89;66.50;94879.91;5115892;28;20192;-72
2022/07/08 02:46:41;;;;;;;5.22;4.82;;;;;;;18.86;66.60;94879.94;5115724;28;20215;-72
2022/07/08 02:49:09;;;;;;;5.65;5.13;;;;;;;18.80;66.39;94879.56;5115383;28;20622;-72
2022/07/08 02:51:37;;;;;;;6.30;5.40;;;;;;;18.70;66.74;94884.00;5115544;28;20235;-72
2022/07/08 02:54:04;;;;;;;6.10;5.60;;;;;;;18.55;67.04;94878.91;5115750;28;20188;-72
2022/07/08 02:56:31;;;;;;;5.35;4.95;;;;;;;18.41;67.33;94880.59;5116694;28;20215;-71
2022/07/08 02:58:58;;;;;;;5.70;5.05;;;;;;;18.32;67.57;94880.25;5115500;28;20200;-72
2022/07/08 03:01:25;;;;;;;6.40;4.95;;;;;;;18.28;67.72;94879.47;5115393;28;20195;-71
2022/07/08 03:03:52;;;;;;;6.65;4.93;;;;;;;18.25;67.72;94881.06;5115085;28;20531;-71
2022/07/08 03:06:20;;;;;;;5.28;4.75;;;;;;;18.29;68.11;94884.63;5115495;28;20192;-72
2022/07/08 03:08:47;;;;;;;6.05;5.47;;;;;;;18.30;68.20;94879.88;5115021;28;20214;-71
2022/07/08 03:11:14;;;;;;;7.70;5.28;;;;;;;18.22;68.07;94878.31;5116427;28;20191;-72
2022/07/08 03:13:41;;;;;;;5.15;4.75;;;;;;;18.13;68.67;94878.75;5098013;28;20272;-72
2022/07/08 03:16:08;;;;;;;5.65;5.15;;;;;;;18.08;68.62;94873.59;5115680;28;20204;-72
2022/07/08 03:18:35;;;;;;;5.60;5.10;;;;;;;18.05;69.08;94877.22;5114840;28;20196;-72
2022/07/08 03:21:03;;;;;;;6.03;5.43;;;;;;;18.08;68.88;94872.78;5115629;28;20553;-72
2022/07/08 03:23:31;;;;;;;5.55;5.05;;;;;;;18.10;68.59;94873.97;5115560;28;20226;-71
2022/07/08 03:25:58;;;;;;;6.10;5.50;;;;;;;18.16;68.94;94871.56;5119364;28;20487;-71
2022/07/08 03:28:25;;;;;;;8.05;5.80;;;;;;;18.21;68.94;94880.31;5118172;28;20198;-71
2022/07/08 03:30:52;;;;;;;6.03;5.43;;;;;;;18.17;69.20;94875.94;5118250;28;20207;-71
2022/07/08 03:33:18;;;;;;;6.28;5.78;;;;;;;18.12;68.86;94881.94;5118937;28;20188;-71
2022/07/08 03:35:45;;;;;;;7.78;5.32;;;;;;;18.16;69.40;94889.13;5118100;28;20199;-71
2022/07/08 03:38:12;;;;;;;6.45;5.78;;;;;;;18.16;69.00;94888.31;5118855;28;20176;-72
2022/07/08 03:43:25;;;;;;;6.63;5.70;;;;;;;18.25;68.86;94894.25;5118065;28;20199;-72
2022/07/08 03:45:52;;;;;;;6.75;6.00;;;;;;;18.29;68.45;94893.00;5118600;28;20184;-72
2022/07/08 03:48:19;;;;;;;6.18;5.68;;;;;;;18.38;68.50;94894.59;5117781;28;20196;-72
2022/07/08 03:50:45;;;;;;;6.53;5.93;;;;;;;18.38;68.31;94895.38;5118522;28;20508;-72
2022/07/08 03:53:12;;;;;;;6.15;5.55;;;;;;;18.39;68.02;94901.75;5117839;28;20235;-72
2022/07/08 03:55:41;;;;;;;5.93;5.22;;;;;;;18.39;67.36;94896.97;5118457;28;20533;-72
2022/07/08 03:58:07;;;;;;;5.93;5.40;;;;;;;18.42;66.80;94898.94;5118734;28;20198;-72
2022/07/08 04:00:34;;;;;;;5.70;5.30;;;;;;;18.44;66.57;94902.09;5118214;28;20202;-72
2022/07/08 04:03:01;;;;;;;5.85;5.22;;;;;;;18.46;66.75;94894.13;5117754;28;20188;-72
2022/07/08 04:05:28;;;;;;;5.82;5.32;;;;;;;18.52;66.27;94895.28;5118352;28;20203;-72
2022/07/08 04:07:55;;;;;;;5.28;4.88;;;;;;;18.55;66.35;94890.88;5118668;28;20190;-72
2022/07/08 04:10:22;;;;;;;6.38;5.88;;;;;;;18.52;66.25;94889.72;5118072;28;20246;-72
2022/07/08 04:12:51;;;;;;;6.20;5.70;;;;;;;18.51;65.78;94896.47;5117942;28;20202;-72
2022/07/08 04:15:17;;;;;;;6.50;5.90;;;;;;;18.51;65.60;94896.47;5118622;28;20196;-72
2022/07/08 04:17:44;;;;;;;5.53;5.05;;;;;;;18.53;65.43;94901.66;5118148;28;20227;-72
2022/07/08 04:20:11;;;;;;;5.43;4.93;;;;;;;18.58;64.94;94895.66;5119012;28;20195;-72
2022/07/08 04:22:38;;;;;;;7.80;4.95;;;;;;;18.62;65.17;94882.44;5117935;28;20211;-72
2022/07/08 04:25:06;;;;;;;5.88;5.40;;;;;;;18.66;65.05;94890.81;5118169;28;20203;-72
2022/07/08 04:27:33;;;;;;;6.05;5.50;;;;;;;18.64;64.82;94891.22;5117939;28;20525;-72
2022/07/08 04:30:01;;;;;;;5.43;5.03;;;;;;;18.60;64.76;94903.63;5117872;28;20203;-72
2022/07/08 04:32:28;;;;;;;6.05;5.53;;;;;;;18.61;65.12;94894.03;5117703;28;20210;-72
2022/07/08 04:34:58;;;;;;;6.13;5.53;;;;;;;18.61;65.79;94902.41;5118932;28;20195;-72
2022/07/08 04:37:25;;;;;;;5.88;5.43;;;;;;;18.60;66.04;94892.47;5118357;28;20292;-72
2022/07/08 04:39:52;;;;;;;6.38;5.80;;;;;;;18.60;66.20;94898.03;5117662;28;20195;-72
2022/07/08 04:42:19;;;;;;;6.13;5.53;;;;;;;18.61;66.50;94892.03;5118881;28;20196;-72
2022/07/08 04:44:46;;;;;;;7.93;5.70;;;;;;;18.66;66.45;94896.38;5116945;28;20207;-74
2022/07/08 04:47:15;;;;;;;6.38;5.80;;;;;;;18.68;66.50;94899.56;5116674;28;20198;-74
2022/07/08 04:49:42;;;;;;;6.82;6.22;;;;;;;18.70;66.05;94905.53;5116282;28;20574;-74
2022/07/08 04:52:09;;;;;;;7.13;6.50;;;;;;;18.74;65.59;94903.56;5098686;28;20236;-74
2022/07/08 04:54:37;;;;;;;6.75;6.25;;;;;;;18.76;66.36;94899.13;5115976;28;20242;-73
2022/07/08 04:57:04;;;;;;;8.65;7.80;;;;;;;18.81;66.37;94902.69;5116076;28;20211;-74
2022/07/08 04:59:31;;;;;;;9.13;8.38;;;;;;;18.81;66.58;94899.91;5116087;28;20214;-74
2022/07/08 05:01:58;;;;;;;8.27;7.47;;;;;;;18.81;67.51;94888.72;5116927;28;20553;-73
2022/07/08 05:04:27;;;;;;;8.68;7.68;;;;;;;18.81;67.71;94891.53;5116976;28;20194;-73
2022/07/08 05:06:53;;;;;;;7.60;6.90;;;;;;;18.81;67.67;94894.31;5116810;28;20187;-73
2022/07/08 05:09:20;;;;;;;7.78;7.00;;;;;;;18.81;68.26;94888.72;5117106;28;20202;-73
2022/07/08 05:11:47;;;;;;;8.55;7.75;;;;;;;18.86;68.48;94894.69;5115656;28;20211;-73
2022/07/08 05:14:14;;;;;;;8.60;7.85;;;;;;;18.90;68.51;94898.25;5116659;28;20183;-73
2022/07/08 05:16:41;;;;;;;7.57;6.88;;;;;;;18.91;68.83;94894.25;5115661;28;20712;-73
2022/07/08 05:19:08;;;;;;;7.00;6.40;;;;;;;18.94;67.75;94892.63;5115856;28;20192;-74
2022/07/08 05:21:37;;;;;;;7.10;6.60;;;;;;;18.95;67.54;94895.03;5116199;28;20249;-74
2022/07/08 05:24:05;;;;;;;7.07;6.43;;;;;;;18.97;67.66;94900.19;5116974;28;20191;-72
2022/07/08 05:26:31;;;;;;;6.47;6.07;;;;;;;18.99;67.68;94898.59;5116640;28;20190;-72
2022/07/08 05:28:58;;;;;;;7.00;5.85;;;;;;;18.99;67.78;94903.34;5115351;28;20198;-72
2022/07/08 05:31:25;;;;;;;7.35;6.63;;;;;;;18.99;67.62;94906.97;5116003;28;20191;-72
2022/07/08 05:33:52;;;;;;;11.80;10.80;;;;;;;18.98;68.14;94901.78;5115470;28;20213;-72
2022/07/08 05:36:19;;;;;;;7.90;7.30;;;;;;;19.06;67.96;94894.91;5116388;28;20184;-72
2022/07/08 05:38:47;;;;;;;6.95;6.45;;;;;;;19.10;67.56;94892.91;5115421;28;20191;-72
2022/07/08 05:41:14;;;;;;;6.63;6.10;;;;;;;19.12;67.19;94898.88;5116083;28;20192;-72
2022/07/08 05:43:41;;;;;;;6.60;6.10;;;;;;;19.13;67.34;94886.47;5116354;28;20207;-72
2022/07/08 05:46:07;;;;;;;6.40;5.93;;;;;;;19.19;66.96;94887.63;5115459;28;20216;-72
2022/07/08 05:48:34;;;;;;;6.78;6.28;;;;;;;19.22;66.97;94892.41;5115125;28;20611;-72
2022/07/08 05:51:01;;;;;;;6.15;5.60;;;;;;;19.28;66.62;94887.16;5116037;28;20199;-72
2022/07/08 05:53:28;;;;;;;6.07;5.57;;;;;;;19.34;65.91;94887.50;5115909;28;20286;-72
2022/07/08 05:55:56;;;;;;;6.18;5.68;;;;;;;19.38;65.69;94891.03;5115821;28;20194;-72
2022/07/08 05:58:23;;;;;;;6.35;5.82;;;;;;;19.41;65.68;94885.41;5115991;28;20218;-72
2022/07/08 06:00:50;;;;;;;8.85;7.90;;;;;;;19.45;65.74;94888.97;5115957;28;20188;-72
2022/07/08 06:03:16;;;;;;;7.00;6.43;;;;;;;19.49;65.29;94895.31;5114686;28;20202;-72
2022/07/08 06:05:43;;;;;;;7.28;6.68;;;;;;;19.54;65.90;94888.50;5115249;28;20199;-72
2022/07/08 06:08:10;;;;;;;7.45;6.85;;;;;;;19.56;65.95;94893.66;5115702;28;20172;-72
2022/07/08 06:10:37;;;;;;;7.05;6.40;;;;;;;19.56;66.74;94888.88;5115930;28;20184;-72
2022/07/08 06:13:05;;;;;;;6.80;6.10;;;;;;;19.62;66.75;94892.03;5114799;28;20188;-72
2022/07/08 06:15:32;;;;;;;6.45;5.95;;;;;;;19.66;67.17;94885.19;5114993;28;20196;-72
2022/07/08 06:17:58;;;;;;;6.82;6.30;;;;;;;19.70;67.25;94885.94;5114775;28;20215;-72
2022/07/08 06:20:25;;;;;;;8.23;6.90;;;;;;;19.75;67.28;94892.28;5115704;28;20188;-72
2022/07/08 06:22:52;;;;;;;7.05;6.45;;;;;;;19.79;67.88;94884.66;5115696;28;20200;-72
2022/07/08 06:25:19;;;;;;;7.03;6.43;;;;;;;19.82;67.67;94889.41;5115965;28;20198;-72
2022/07/08 06:27:46;;;;;;;7.90;7.10;;;;;;;19.86;67.21;94877.00;5115797;28;20180;-72
2022/07/08 06:30:15;;;;;;;7.32;6.72;;;;;;;19.93;66.89;94881.69;5115661;28;20191;-72
2022/07/08 06:32:41;;;;;;;7.97;7.10;;;;;;;20.01;66.32;94876.78;5115590;28;20180;-72
2022/07/08 06:35:10;;;;;;;7.55;6.88;;;;;;;20.05;66.82;94878.38;5115424;28;20258;-72
2022/07/08 06:37:37;;;;;;;8.00;7.30;;;;;;;20.08;66.28;94866.34;5115512;28;20647;-72
2022/07/08 06:40:05;;;;;;;7.53;6.82;;;;;;;20.13;66.41;94862.25;5115567;28;20199;-72
2022/07/08 06:42:32;;;;;;;8.85;7.35;;;;;;;20.18;66.21;94867.38;5115801;28;20210;-70
2022/07/08 06:44:59;;;;;;;7.28;6.68;;;;;;;20.20;65.84;94862.16;5115482;28;20196;-72
2022/07/08 06:47:27;;;;;;;7.25;6.75;;;;;;;20.23;65.53;94860.53;5114748;28;20200;-72
2022/07/08 06:49:54;;;;;;;6.80;6.30;;;;;;;20.27;66.02;94855.69;5115333;28;20203;-72
2022/07/08 06:52:21;;;;;;;8.05;7.25;;;;;;;20.33;65.93;94856.78;5115680;28;20227;-72
2022/07/08 06:54:48;;;;;;;7.47;6.82;;;;;;;20.35;65.37;94843.16;5115200;28;20615;-72
2022/07/08 06:57:15;;;;;;;7.95;7.13;;;;;;;20.40;65.54;94851.88;5114588;28;20212;-72
2022/07/08 06:59:42;;;;;;;8.68;7.88;;;;;;;20.46;65.16;94846.59;5116497;28;20295;-72
2022/07/08 07:02:09;;;;;;;8.57;7.70;;;;;;;20.52;65.16;94844.16;5119555;28;20248;-72
2022/07/08 07:04:38;;;;;;;8.38;7.57;;;;;;;20.58;65.45;94840.44;5118741;28;20203;-72
2022/07/08 07:07:05;;;;;;;6.97;6.38;;;;;;;20.63;64.00;94834.38;5118376;28;20192;-70
2022/07/08 07:09:32;;;;;;;6.97;6.38;;;;;;;20.66;63.29;94830.72;5118884;28;20592;-70
2022/07/08 07:11:59;;;;;;;6.20;5.70;;;;;;;20.71;63.25;94829.44;5119280;28;20219;-73
2022/07/08 07:14:25;;;;;;;9.65;7.47;;;;;;;20.78;64.14;94825.75;5119068;28;20195;-72
2022/07/08 07:16:52;;;;;;;7.45;6.53;;;;;;;20.86;63.39;94827.22;5119137;28;20192;-72
2022/07/08 07:19:19;;;;;;;6.78;6.28;;;;;;;20.87;63.02;94826.78;5119290;28;20188;-70
2022/07/08 07:21:47;;;;;;;6.97;6.38;;;;;;;20.94;63.26;94819.47;5118501;28;20509;-69
2022/07/08 07:24:15;;;;;;;6.85;6.18;;;;;;;20.99;63.19;94821.78;5118173;28;20196;-70
2022/07/08 07:26:42;;;;;;;7.43;5.78;;;;;;;21.10;62.41;94828.03;5118200;28;20225;-70
2022/07/08 07:29:09;;;;;;;6.43;5.07;;;;;;;21.15;61.54;94825.50;5119059;28;20265;-70
2022/07/08 07:31:36;;;;;;;5.65;5.25;;;;;;;21.18;61.33;94826.66;5118991;27;20203;-70
2022/07/08 07:34:03;;;;;;;6.30;5.80;;;;;;;21.22;61.67;94821.78;5117822;28;20200;-71
2022/07/08 07:36:30;;;;;;;5.30;4.90;;;;;;;21.29;59.88;94835.69;5118751;28;20199;-71
2022/07/08 07:38:58;;;;;;;6.00;5.55;;;;;;;21.32;60.50;94831.25;5117635;28;20216;-70
2022/07/08 07:41:25;;;;;;;6.70;5.50;;;;;;;21.38;60.11;94832.34;5118576;28;20203;-70
2022/07/08 07:43:52;;;;;;;6.00;5.60;;;;;;;21.39;60.40;94828.34;5118436;28;20188;-70
2022/07/08 07:46:19;;;;;;;5.22;4.80;;;;;;;21.45;59.69;94832.22;5117599;28;20191;-70
2022/07/08 07:48:46;;;;;;;7.10;5.10;;;;;;;21.52;58.70;94834.88;5118368;28;20195;-74
2022/07/08 07:51:13;;;;;;;4.70;4.40;;;;;;;21.56;57.69;94832.00;5118073;28;20321;-71
2022/07/08 07:53:40;;;;;;;4.43;4.03;;;;;;;21.59;57.66;94831.16;5118329;28;20187;-71
2022/07/08 07:56:08;;;;;;;4.30;4.00;;;;;;;21.64;58.45;94841.88;5118077;28;20184;-71
2022/07/08 07:58:35;;;;;;;4.90;4.50;;;;;;;21.72;58.03;94836.94;5118104;28;20208;-71
2022/07/08 08:01:02;;;;;;;4.55;4.03;;;;;;;21.79;57.48;94834.00;5117292;28;20210;-71
2022/07/08 08:03:29;;;;;;;4.70;4.30;;;;;;;21.84;56.83;94837.06;5117193;28;20204;-70
2022/07/08 08:05:55;;;;;;;3.78;3.13;;;;;;;21.96;54.82;94823.59;5118149;28;20203;-71
2022/07/08 08:08:24;;;;;;;3.50;3.20;;;;;;;21.98;53.54;94832.41;5118092;28;20180;-70
2022/07/08 08:10:51;;;;;;;4.55;4.15;;;;;;;22.02;55.33;94833.91;5116875;28;20188;-70
2022/07/08 08:13:19;;;;;;;4.80;4.45;;;;;;;22.03;54.62;94831.88;5117520;28;20207;-70
2022/07/08 08:15:46;;;;;;;4.30;4.00;;;;;;;22.02;55.52;94831.09;5117930;28;20192;-70
2022/07/08 08:18:13;;;;;;;4.70;4.00;;;;;;;22.06;56.57;94831.81;5117793;28;20211;-70
2022/07/08 08:20:40;;;;;;;4.50;3.92;;;;;;;22.13;56.91;94822.44;5116897;28;20198;-70
2022/07/08 08:23:07;;;;;;;5.88;4.20;;;;;;;22.21;56.35;94818.28;5116463;28;20200;-71
2022/07/08 08:25:35;;;;;;;3.97;3.60;;;;;;;22.31;55.48;94822.88;5117639;28;20204;-70
2022/07/08 08:28:01;;;;;;;3.80;3.35;;;;;;;22.41;54.29;94823.09;5116840;28;20215;-70
2022/07/08 08:30:30;;;;;;;3.60;3.40;;;;;;;22.43;53.83;94815.78;5116974;28;20210;-70
2022/07/08 08:32:57;;;;;;;3.65;3.22;;;;;;;22.49;52.19;94807.63;5116630;28;20194;-70
2022/07/08 08:35:24;;;;;;;3.85;3.47;;;;;;;22.56;52.65;94808.25;5116656;28;20203;-70
2022/07/08 08:37:52;;;;;;;3.92;3.60;;;;;;;22.65;53.80;94812.47;5116656;28;20216;-70
2022/07/08 08:40:20;;;;;;;3.67;3.38;;;;;;;22.74;52.30;94799.41;5117410;28;20219;-70
2022/07/08 08:42:47;;;;;;;3.83;3.60;;;;;;;22.77;53.05;94800.56;5117366;28;20202;-70
2022/07/08 08:45:14;;;;;;;5.22;3.60;;;;;;;22.82;52.55;94803.63;5117389;28;20184;-70
2022/07/08 08:47:46;;;;;;;4.07;3.78;;;;;;;22.90;53.90;94795.00;5116089;28;20612;-70
2022/07/08 08:52:57;;;;;;;4.10;3.80;;;;;;;23.08;51.63;94788.97;5115743;28;20259;-70
2022/07/08 08:55:26;;;;;;;3.42;3.13;;;;;;;23.14;52.47;94796.44;5117209;28;20207;-70
2022/07/08 08:57:56;;;;;;;4.75;4.35;;;;;;;23.29;52.89;94791.22;5116063;28;20375;-70
2022/07/08 09:00:23;;;;;;;4.10;3.80;;;;;;;23.41;52.82;94790.50;5116267;28;20202;-70
2022/07/08 09:02:52;;;;;;;4.00;3.70;;;;;;;23.45;53.96;94781.94;5115737;28;20653;-70
2022/07/08 09:05:20;;;;;;;4.30;3.80;;;;;;;23.50;51.96;94778.59;5116998;28;20184;-70
2022/07/08 09:07:47;;;;;;;3.90;3.60;;;;;;;23.52;52.05;94788.16;5116020;28;20199;-70
2022/07/08 09:10:14;;;;;;;3.83;3.53;;;;;;;23.55;53.39;94787.28;5115892;28;20204;-70
2022/07/08 09:13:00;;;;;;;3.35;3.13;;;;;;;23.63;49.71;94778.66;5116782;28;20194;-70
2022/07/08 09:15:30;;;;;;;4.25;3.83;;;;;;;23.66;49.94;94778.53;5116111;28;20206;-70
2022/07/08 09:17:58;;;;;;;3.38;3.17;;;;;;;23.67;48.51;94777.34;5115899;28;20215;-70
2022/07/08 09:20:26;;;;;;;3.95;3.55;;;;;;;23.72;49.00;94774.00;5116430;28;20592;-70
2022/07/08 09:22:52;;;;;;;3.90;3.60;;;;;;;23.72;49.28;94767.56;5116320;28;20270;-70
2022/07/08 09:25:19;;;;;;;4.05;3.75;;;;;;;23.82;51.72;94777.75;5115564;28;20199;-70
2022/07/08 09:27:46;;;;;;;4.20;3.90;;;;;;;23.92;49.56;94773.81;5116543;28;20188;-71
2022/07/08 09:30:15;;;;;;;3.20;3.00;;;;;;;23.95;49.95;94777.75;5116534;28;20222;-70
2022/07/08 09:32:41;;;;;;;4.10;3.75;;;;;;;24.03;49.25;94776.31;5116102;28;20524;-70
2022/07/08 09:35:13;;;;;;;3.80;3.50;;;;;;;24.07;49.84;94759.31;5115547;28;20200;-70
2022/07/08 09:37:40;;;;;;;5.00;3.63;;;;;;;24.08;50.46;94758.09;5116296;28;20202;-70
2022/07/08 09:40:17;;;;;;;4.57;4.25;;;;;;;24.15;50.10;94753.03;5116385;28;20191;-70
2022/07/08 09:42:44;;;;;;;3.70;3.50;;;;;;;24.26;50.34;94747.84;5115828;28;20283;-71
2022/07/08 09:45:11;;;;;;;5.03;4.13;;;;;;;24.43;50.62;94751.34;5115231;28;20192;-70
2022/07/08 09:47:38;;;;;;;4.20;3.90;;;;;;;24.47;50.78;94746.41;5115857;28;20196;-70
2022/07/08 09:50:09;;;;;;;4.40;4.00;;;;;;;24.38;49.06;94746.25;5115490;28;20188;-70
2022/07/08 09:52:38;;;;;;;4.50;3.78;;;;;;;24.24;50.07;94755.94;5114713;28;20219;-70
2022/07/08 09:55:05;;;;;;;4.22;3.83;;;;;;;24.11;49.13;94748.72;5115731;28;20191;-70
2022/07/08 09:57:32;;;;;;;6.93;3.83;;;;;;;24.00;49.31;94746.22;5115973;28;20192;-70
2022/07/08 09:59:59;;;;;;;3.75;3.55;;;;;;;24.02;50.96;94746.56;5115067;28;20199;-70
2022/07/08 10:02:28;;;;;;;3.92;3.58;;;;;;;23.96;49.70;94732.25;5114755;28;20195;-70
2022/07/08 10:04:56;;;;;;;3.47;3.17;;;;;;;23.89;50.38;94738.09;5114701;28;20202;-70
2022/07/08 10:07:22;;;;;;;3.85;3.53;;;;;;;23.80;50.27;94737.19;5115602;28;20509;-70
2022/07/08 10:09:51;;;;;;;3.75;3.55;;;;;;;23.71;50.08;94733.00;5115444;28;20202;-70
2022/07/08 10:12:18;;;;;;;4.28;3.75;;;;;;;23.84;48.69;94721.75;5114934;28;20282;-70
2022/07/08 10:14:47;;;;;;;3.75;3.40;;;;;;;23.97;49.29;94714.13;5114621;28;20188;-70
2022/07/08 10:17:16;;;;;;;4.10;3.67;;;;;;;24.24;48.25;94708.03;5114619;28;20196;-70
2022/07/08 10:19:43;;;;;;;4.72;3.50;;;;;;;24.44;46.07;94701.44;5114991;28;20216;-70
2022/07/08 10:22:11;;;;;;;3.90;3.60;;;;;;;24.53;49.28;94695.09;5114842;28;20268;-70
2022/07/08 10:24:39;;;;;;;3.67;3.35;;;;;;;24.63;47.89;94691.94;5114928;28;20188;-70
2022/07/08 10:27:10;;;;;;;3.70;3.40;;;;;;;24.80;48.97;94692.59;5114444;28;20200;-70
2022/07/08 10:29:39;;;;;;;3.83;3.30;;;;;;;24.83;46.32;94680.38;5115252;28;20199;-70
2022/07/08 10:32:24;;;;;;;3.50;3.30;;;;;;;24.65;47.62;94683.78;5114884;28;20196;-70
2022/07/08 10:35:09;;;;;;;3.88;3.58;;;;;;;24.55;47.50;94686.97;5117854;28;20183;-71
2022/07/08 10:37:49;;;;;;;3.42;3.17;;;;;;;24.73;47.12;94684.38;5119648;28;20228;-71
2022/07/08 10:40:52;;;;;;;3.33;3.13;;;;;;;24.87;46.83;94681.03;5118634;28;20207;-70
2022/07/08 10:43:28;;;;;;;3.90;3.60;;;;;;;24.78;47.77;94695.06;5119330;28;20203;-70
2022/07/08 10:46:12;;;;;;;4.60;3.50;;;;;;;24.59;47.44;94699.72;5119076;28;20191;-70
2022/07/08 10:48:57;;;;;;;3.72;3.42;;;;;;;24.51;46.78;94698.38;5118744;28;20192;-70
2022/07/08 10:51:46;;;;;;;5.32;4.80;;;;;;;24.38;47.68;94708.84;5119554;28;20235;-71
2022/07/08 10:54:35;;;;;;;3.65;3.35;;;;;;;24.31;47.58;94703.44;5119506;28;20192;-70
2022/07/08 10:57:02;;;;;;;3.25;3.05;;;;;;;24.37;47.20;94699.59;5119123;28;20184;-70
2022/07/08 10:59:32;;;;;;;3.60;3.30;;;;;;;24.48;48.97;94702.09;5118119;28;20552;-70
2022/07/08 11:02:01;;;;;;;3.65;3.35;;;;;;;24.47;46.00;94690.03;5119429;28;20211;-70
2022/07/08 11:04:31;;;;;;;3.53;3.25;;;;;;;24.37;45.20;94696.00;5118738;28;20199;-70
2022/07/08 11:07:25;;;;;;;3.25;2.95;;;;;;;24.41;44.44;94679.78;5118405;28;20206;-70
2022/07/08 11:09:53;;;;;;;3.08;2.88;;;;;;;24.59;46.61;94668.72;5119556;28;20180;-70
2022/07/08 11:12:24;;;;;;;4.28;3.88;;;;;;;24.84;48.50;94669.91;5118446;28;20272;-70
2022/07/08 11:14:53;;;;;;;3.80;3.53;;;;;;;24.91;47.40;94659.16;5118630;28;20191;-70
2022/07/08 11:17:22;;;;;;;3.70;3.40;;;;;;;24.86;48.17;94665.34;5119134;28;20535;-70
2022/07/08 11:19:50;;;;;;;4.13;3.83;;;;;;;24.91;47.52;94661.97;5119174;28;20219;-70
2022/07/08 11:22:17;;;;;;;4.03;3.67;;;;;;;24.95;48.18;94659.03;5118641;28;20187;-70
2022/07/08 11:24:45;;;;;;;4.10;3.70;;;;;;;25.06;47.33;94662.25;5118821;28;20219;-70
2022/07/08 11:27:11;;;;;;;4.90;4.05;;;;;;;24.93;46.00;94645.38;5117749;28;20635;-71
2022/07/08 11:29:38;;;;;;;4.00;3.65;;;;;;;24.81;45.93;94648.25;5118952;28;20494;-71
2022/07/08 11:32:07;;;;;;;3.67;3.30;;;;;;;24.71;45.69;94650.19;5118891;28;20195;-71
2022/07/08 11:34:34;;;;;;;3.22;3.03;;;;;;;24.66;45.61;94651.56;5117246;28;20207;-69
2022/07/08 11:37:02;;;;;;;3.40;2.97;;;;;;;24.72;47.15;94646.09;5118691;28;20187;-71
2022/07/08 11:39:29;;;;;;;3.30;3.00;;;;;;;24.87;46.99;94641.53;5118623;28;20215;-70
2022/07/08 11:41:56;;;;;;;3.08;2.88;;;;;;;24.90;47.26;94642.66;5117987;28;20208;-70
2022/07/08 11:44:23;;;;;;;3.55;3.25;;;;;;;24.92;47.43;94643.00;5117689;28;20199;-70